createdAt,value
2022-09-04T00:00:13.936Z,11.47
2022-09-04T00:03:15.675Z,11.14
2022-09-04T00:05:52.297Z,11.45
2022-09-04T00:08:33.044Z,11.50
2022-09-04T00:11:25.648Z,11.28
2022-09-04T00:14:07.005Z,11.29
2022-09-04T00:17:06.926Z,11.50
2022-09-04T00:30:27.658Z,10.77
2022-09-04T00:33:46.287Z,11.45
2022-09-04T00:36:30.974Z,10.73
2022-09-04T00:39:07.618Z,10.90
2022-09-04T00:42:08.510Z,11.88
2022-09-04T00:45:14.634Z,11.98
2022-09-04T00:47:53.561Z,11.86
2022-09-04T00:51:01.705Z,11.70
2022-09-04T00:53:47.753Z,10.79
2022-09-04T00:56:35.716Z,11.70
2022-09-04T00:59:15.048Z,11.41
2022-09-04T01:01:44.813Z,9.86
2022-09-04T01:04:32.701Z,11.47
2022-09-04T01:07:35.299Z,11.44
2022-09-04T01:10:31.870Z,11.50
2022-09-04T01:13:18.300Z,10.82
2022-09-04T01:15:59.380Z,10.23
2022-09-04T01:18:45.365Z,10.50
2022-09-04T01:21:48.703Z,10.82
2022-09-04T01:24:24.222Z,11.12
2022-09-04T01:27:00.998Z,11.29
2022-09-04T01:29:49.683Z,10.90
2022-09-04T01:32:53.157Z,11.13
2022-09-04T01:35:32.857Z,11.13
2022-09-04T01:38:14.408Z,11.17
2022-09-04T01:40:56.531Z,10.96
2022-09-04T01:43:23.622Z,10.78
2022-09-04T01:46:07.997Z,11.04
2022-09-04T01:48:45.130Z,10.89
2022-09-04T01:51:38.879Z,10.98
2022-09-04T01:54:23.574Z,11.13
2022-09-04T01:57:14.825Z,11.03
2022-09-04T02:00:02.606Z,11.01
2022-09-04T02:02:41.272Z,10.74
2022-09-04T02:05:22.023Z,10.95
2022-09-04T02:08:03.498Z,10.90
2022-09-04T02:10:56.331Z,10.78
2022-09-04T02:13:48.011Z,10.60
2022-09-04T02:20:43.176Z,10.86
2022-09-04T02:23:18.397Z,10.81
2022-09-04T02:26:08.063Z,9.26
2022-09-04T02:29:03.720Z,10.60
2022-09-04T02:31:54.331Z,9.42
2022-09-04T02:34:33.860Z,10.30
2022-09-04T02:37:15.074Z,10.76
2022-09-04T02:40:18.937Z,10.58
2022-09-04T02:43:16.389Z,10.67
2022-09-04T02:45:58.439Z,10.51
2022-09-04T02:48:40.226Z,10.45
2022-09-04T02:51:31.259Z,10.59
2022-09-04T02:54:10.319Z,10.49
2022-09-04T02:56:55.858Z,10.48
2022-09-04T02:59:35.089Z,10.67
2022-09-04T03:02:11.525Z,10.40
2022-09-04T03:04:49.918Z,10.30
2022-09-04T03:07:31.674Z,10.33
2022-09-04T03:10:01.133Z,10.21
2022-09-04T03:12:37.259Z,10.06
2022-09-04T03:15:28.290Z,10.26
2022-09-04T03:18:04.904Z,10.17
2022-09-04T03:20:43.046Z,10.24
2022-09-04T03:23:19.590Z,10.21
2022-09-04T03:25:45.924Z,10.05
2022-09-04T03:28:34.118Z,10.21
2022-09-04T03:31:24.362Z,10.10
2022-09-04T03:34:06.116Z,9.92
2022-09-04T03:36:55.946Z,10.06
2022-09-04T03:39:53.913Z,10.06
2022-09-04T03:42:32.240Z,10.07
2022-09-04T03:45:20.934Z,10.07
2022-09-04T03:48:06.150Z,10.18
2022-09-04T03:50:47.911Z,10.17
2022-09-04T03:53:45.551Z,10.19
2022-09-04T03:56:18.000Z,10.08
2022-09-04T03:58:47.354Z,10.20
2022-09-04T04:01:36.958Z,10.11
2022-09-04T04:04:35.772Z,10.07
2022-09-04T04:07:30.312Z,10.02
2022-09-04T04:10:13.847Z,10.08
2022-09-04T04:12:52.352Z,10.09
2022-09-04T04:15:25.063Z,10.04
2022-09-04T04:18:23.277Z,10.19
2022-09-04T04:20:55.670Z,10.26
2022-09-04T04:24:19.130Z,10.31
2022-09-04T04:27:17.211Z,10.22
2022-09-04T04:30:04.255Z,10.27
2022-09-04T04:32:43.906Z,10.24
2022-09-04T04:35:11.523Z,10.30
2022-09-04T04:37:57.430Z,10.22
2022-09-04T04:40:47.072Z,10.17
2022-09-04T04:43:39.834Z,10.32
2022-09-04T04:46:14.257Z,10.22
2022-09-04T04:49:11.695Z,10.20
2022-09-04T04:52:09.351Z,10.24
2022-09-04T04:55:12.931Z,10.23
2022-09-04T04:57:53.317Z,10.04
2022-09-04T05:00:30.048Z,10.21
2022-09-04T05:03:32.578Z,10.23
2022-09-04T05:06:18.922Z,10.19
2022-09-04T05:09:17.370Z,10.23
2022-09-04T05:11:53.219Z,10.17
2022-09-04T05:14:38.696Z,10.50
2022-09-04T05:17:24.940Z,10.56
2022-09-04T05:20:29.078Z,10.54
2022-09-04T05:23:24.850Z,10.66
2022-09-04T05:26:03.383Z,10.71
2022-09-04T05:28:32.834Z,10.81
2022-09-04T05:31:09.367Z,10.61
2022-09-04T05:34:07.087Z,10.66
2022-09-04T05:36:51.702Z,10.96
2022-09-04T05:39:30.342Z,10.98
2022-09-04T05:42:18.678Z,11.32
2022-09-04T05:45:07.447Z,11.32
2022-09-04T05:47:44.606Z,11.36
2022-09-04T05:50:44.924Z,11.65
2022-09-04T05:53:38.868Z,11.68
2022-09-04T05:56:35.847Z,11.86
2022-09-04T05:59:05.340Z,11.83
2022-09-04T06:01:59.682Z,11.90
2022-09-04T06:04:44.780Z,11.95
2022-09-04T06:07:31.764Z,12.12
2022-09-04T06:10:13.238Z,12.06
2022-09-04T06:12:57.844Z,12.20
2022-09-04T06:15:48.701Z,12.25
2022-09-04T06:18:21.050Z,12.39
2022-09-04T06:21:26.752Z,12.59
2022-09-04T06:24:19.706Z,12.34
2022-09-04T06:27:21.296Z,12.64
2022-09-04T06:30:10.386Z,12.72
2022-09-04T06:32:36.753Z,12.81
2022-09-04T06:35:30.307Z,12.90
2022-09-04T06:38:24.657Z,12.90
2022-09-04T06:41:08.461Z,13.03
2022-09-04T06:43:50.006Z,13.09
2022-09-04T06:46:34.728Z,12.97
2022-09-04T06:49:38.756Z,13.44
2022-09-04T06:52:33.375Z,13.43
2022-09-04T06:55:26.171Z,12.90
2022-09-04T06:58:46.976Z,13.78
2022-09-04T07:01:43.188Z,13.53
2022-09-04T07:04:44.460Z,14.22
2022-09-04T07:07:30.962Z,14.26
2022-09-04T07:10:18.184Z,14.22
2022-09-04T07:13:24.437Z,14.38
2022-09-04T07:16:03.740Z,14.38
2022-09-04T07:19:07.637Z,14.48
2022-09-04T07:22:00.713Z,14.56
2022-09-04T07:25:05.833Z,14.48
2022-09-04T07:28:00.402Z,15.21
2022-09-04T07:30:33.254Z,15.45
2022-09-04T07:33:06.705Z,15.51
2022-09-04T07:35:54.222Z,15.69
2022-09-04T07:38:37.370Z,15.92
2022-09-04T07:41:22.541Z,16.11
2022-09-04T07:44:07.943Z,16.00
2022-09-04T07:47:02.217Z,16.36
2022-09-04T07:49:28.570Z,16.56
2022-09-04T07:52:25.815Z,16.68
2022-09-04T07:55:05.334Z,16.68
2022-09-04T07:58:10.710Z,16.76
2022-09-04T08:00:51.843Z,17.02
2022-09-04T08:03:32.769Z,16.96
2022-09-04T08:06:28.727Z,17.02
2022-09-04T08:09:04.492Z,17.24
2022-09-04T08:11:47.095Z,17.46
2022-09-04T08:14:21.247Z,17.56
2022-09-04T08:17:24.514Z,17.70
2022-09-04T08:20:12.663Z,17.99
2022-09-04T08:22:52.426Z,17.80
2022-09-04T08:25:46.220Z,17.95
2022-09-04T08:28:37.357Z,18.14
2022-09-04T08:31:29.800Z,18.42
2022-09-04T08:34:29.697Z,18.63
2022-09-04T08:37:52.719Z,18.99
2022-09-04T08:40:43.244Z,19.05
2022-09-04T08:43:37.362Z,19.03
2022-09-04T08:46:31.735Z,18.97
2022-09-04T08:49:09.414Z,18.90
2022-09-04T08:51:57.727Z,19.25
2022-09-04T08:54:37.509Z,19.24
2022-09-04T08:57:22.342Z,19.32
2022-09-04T09:00:06.646Z,19.50
2022-09-04T09:03:04.115Z,19.67
2022-09-04T09:05:41.240Z,19.56
2022-09-04T09:08:07.688Z,19.54
2022-09-04T09:10:34.142Z,19.75
2022-09-04T09:13:45.496Z,19.68
2022-09-04T09:16:16.077Z,19.82
2022-09-04T09:19:04.318Z,19.78
2022-09-04T09:22:04.813Z,19.85
2022-09-04T09:24:54.389Z,19.81
2022-09-04T09:28:05.768Z,19.97
2022-09-04T09:31:02.743Z,20.14
2022-09-04T09:34:09.245Z,19.98
2022-09-04T09:37:08.172Z,20.02
2022-09-04T09:39:51.331Z,20.08
2022-09-04T09:42:55.588Z,20.16
2022-09-04T09:45:35.835Z,19.88
2022-09-04T09:48:31.397Z,19.82
2022-09-04T09:51:35.466Z,19.95
2022-09-04T09:54:12.471Z,19.91
2022-09-04T09:56:59.360Z,20.07
2022-09-04T09:59:51.682Z,19.94
2022-09-04T10:02:44.204Z,20.38
2022-09-04T10:05:41.619Z,20.47
2022-09-04T10:08:11.015Z,20.80
2022-09-04T10:11:10.754Z,21.23
2022-09-04T10:14:14.775Z,21.48
2022-09-04T10:17:19.132Z,21.40
2022-09-04T10:20:28.391Z,21.55
2022-09-04T10:23:21.442Z,21.60
2022-09-04T10:25:59.970Z,21.76
2022-09-04T10:28:45.108Z,21.69
2022-09-04T10:31:27.076Z,21.71
2022-09-04T10:34:24.138Z,21.65
2022-09-04T10:37:24.843Z,21.91
2022-09-04T10:40:52.535Z,21.93
2022-09-04T10:43:50.703Z,21.53
2022-09-04T10:46:37.120Z,21.58
2022-09-04T10:49:46.436Z,21.45
2022-09-04T10:52:38.352Z,21.27
2022-09-04T10:55:13.840Z,21.23
2022-09-04T10:57:55.396Z,21.08
2022-09-04T11:01:03.373Z,21.05
2022-09-04T11:03:53.196Z,21.28
2022-09-04T11:06:37.692Z,21.57
2022-09-04T11:09:36.496Z,21.71
2022-09-04T11:12:32.131Z,21.88
2022-09-04T11:15:30.874Z,21.71
2022-09-04T11:18:17.737Z,21.76
2022-09-04T11:20:50.232Z,21.50
2022-09-04T11:23:36.346Z,21.44
2022-09-04T11:26:33.549Z,21.74
2022-09-04T11:29:18.391Z,21.91
2022-09-04T11:32:18.743Z,22.05
2022-09-04T11:35:04.128Z,21.97
2022-09-04T11:37:57.825Z,22.09
2022-09-04T11:40:33.464Z,22.25
2022-09-04T11:43:24.911Z,22.45
2022-09-04T11:46:17.842Z,22.30
2022-09-04T11:49:07.976Z,22.34
2022-09-04T11:51:41.861Z,22.35
2022-09-04T11:54:15.263Z,22.33
2022-09-04T11:56:47.672Z,22.09
2022-09-04T11:59:14.026Z,22.10
2022-09-04T12:02:03.472Z,22.09
2022-09-04T12:05:04.098Z,22.10
2022-09-04T12:07:48.400Z,22.13
2022-09-04T12:10:38.250Z,22.46
2022-09-04T12:13:27.496Z,22.69
2022-09-04T12:15:54.593Z,22.63
2022-09-04T12:18:33.486Z,22.84
2022-09-04T12:21:21.894Z,22.93
2022-09-04T12:24:19.328Z,22.76
2022-09-04T12:27:07.057Z,23.00
2022-09-04T12:29:47.466Z,22.89
2022-09-04T12:33:08.338Z,22.78
2022-09-04T12:36:01.541Z,23.11
2022-09-04T12:38:34.586Z,23.13
2022-09-04T12:41:39.948Z,23.17
2022-09-04T12:44:26.539Z,23.49
2022-09-04T12:47:15.439Z,23.63
2022-09-04T12:49:55.602Z,23.35
2022-09-04T12:52:35.523Z,23.56
2022-09-04T12:55:09.952Z,23.65
2022-09-04T12:58:22.342Z,23.69
2022-09-04T13:01:15.934Z,23.92
2022-09-04T13:03:52.668Z,24.08
2022-09-04T13:06:30.707Z,24.01
2022-09-04T13:09:15.777Z,23.58
2022-09-04T13:11:56.553Z,23.59
2022-09-04T13:14:57.506Z,23.91
2022-09-04T13:18:00.409Z,23.58
2022-09-04T13:20:40.498Z,23.75
2022-09-04T13:23:19.068Z,24.02
2022-09-04T13:26:16.591Z,23.48
2022-09-04T13:28:54.713Z,23.59
2022-09-04T13:31:38.210Z,23.77
2022-09-04T13:34:23.916Z,24.03
2022-09-04T13:37:33.295Z,24.21
2022-09-04T13:40:45.667Z,24.05
2022-09-04T13:43:38.410Z,24.25
2022-09-04T13:46:24.719Z,24.20
2022-09-04T13:48:59.926Z,24.43
2022-09-04T13:51:37.635Z,24.20
2022-09-04T13:54:38.882Z,24.45
2022-09-04T13:57:20.970Z,24.55
2022-09-04T13:59:50.504Z,24.33
2022-09-04T14:02:24.473Z,24.24
2022-09-04T14:05:31.927Z,24.31
2022-09-04T14:08:04.084Z,24.72
2022-09-04T14:11:08.123Z,24.71
2022-09-04T14:14:13.055Z,24.46
2022-09-04T14:16:55.606Z,24.51
2022-09-04T14:19:42.495Z,24.43
2022-09-04T14:22:40.038Z,24.62
2022-09-04T14:25:45.184Z,25.02
2022-09-04T14:28:40.285Z,25.08
2022-09-04T14:31:53.375Z,25.24
2022-09-04T14:34:39.160Z,25.08
2022-09-04T14:37:36.641Z,25.16
2022-09-04T14:40:22.098Z,25.33
2022-09-04T14:43:03.475Z,25.28
2022-09-04T14:45:54.724Z,25.36
2022-09-04T14:48:24.167Z,25.21
2022-09-04T14:50:57.612Z,25.11
2022-09-04T14:53:33.536Z,25.35
2022-09-04T14:56:10.922Z,25.38
2022-09-04T14:58:44.161Z,25.54
2022-09-04T15:01:26.591Z,25.42
2022-09-04T15:04:00.184Z,25.35
2022-09-04T15:07:07.541Z,25.43
2022-09-04T15:09:49.906Z,25.41
2022-09-04T15:12:28.112Z,25.41
2022-09-04T15:15:05.960Z,25.19
2022-09-04T15:17:36.537Z,25.07
2022-09-04T15:20:16.984Z,25.03
2022-09-04T15:22:58.737Z,25.30
2022-09-04T15:25:58.613Z,25.42
2022-09-04T15:28:51.534Z,25.34
2022-09-04T15:31:39.891Z,25.27
2022-09-04T15:34:10.293Z,25.61
2022-09-04T15:36:39.066Z,25.57
2022-09-04T15:39:11.226Z,25.54
2022-09-04T15:41:50.025Z,25.52
2022-09-04T15:44:19.763Z,25.49
2022-09-04T15:47:05.325Z,25.41
2022-09-04T15:49:51.293Z,25.47
2022-09-04T15:52:58.492Z,24.92
2022-09-04T15:55:29.404Z,24.92
2022-09-04T15:58:19.582Z,24.93
2022-09-04T16:01:16.802Z,24.77
2022-09-04T16:04:12.549Z,24.92
2022-09-04T16:06:54.800Z,24.79
2022-09-04T16:09:27.528Z,25.17
2022-09-04T16:12:17.135Z,25.28
2022-09-04T16:14:49.261Z,24.97
2022-09-04T16:17:25.187Z,25.26
2022-09-04T16:19:57.746Z,25.41
2022-09-04T16:22:40.207Z,25.31
2022-09-04T16:25:23.957Z,25.51
2022-09-04T16:28:08.262Z,25.41
2022-09-04T16:31:02.093Z,25.24
2022-09-04T16:33:31.600Z,25.20
2022-09-04T16:36:07.898Z,25.14
2022-09-04T16:38:43.991Z,24.96
2022-09-04T16:41:56.585Z,24.76
2022-09-04T16:44:44.355Z,24.65
2022-09-04T16:47:31.708Z,24.66
2022-09-04T16:50:17.946Z,24.61
2022-09-04T16:53:17.508Z,24.39
2022-09-04T16:56:36.908Z,24.25
2022-09-04T16:59:27.676Z,23.97
2022-09-04T17:02:10.236Z,23.73
2022-09-04T17:04:47.611Z,23.70
2022-09-04T17:07:21.434Z,23.28
2022-09-04T17:10:08.884Z,22.83
2022-09-04T17:12:54.107Z,22.82
2022-09-04T17:15:52.656Z,22.51
2022-09-04T17:18:23.454Z,21.97
2022-09-04T17:21:38.312Z,21.75
2022-09-04T17:28:56.808Z,21.37
2022-09-04T17:29:12.100Z,20.90
2022-09-04T17:29:46.117Z,21.05
2022-09-04T17:33:01.481Z,20.67
2022-09-04T17:40:35.642Z,20.17
2022-09-04T17:40:46.388Z,20.25
2022-09-04T17:42:22.103Z,19.66
2022-09-04T17:45:03.538Z,19.35
2022-09-04T17:47:34.852Z,19.46
2022-09-04T17:50:24.450Z,19.09
2022-09-04T17:53:01.369Z,18.68
2022-09-04T17:55:30.808Z,18.65
2022-09-04T17:58:15.153Z,18.53
2022-09-04T18:01:15.170Z,18.26
2022-09-04T18:04:12.118Z,18.17
2022-09-04T18:08:08.409Z,17.78
2022-09-04T18:10:31.260Z,17.74
2022-09-04T18:13:08.783Z,17.54
2022-09-04T18:16:04.750Z,17.44
2022-09-04T18:18:46.348Z,17.54
2022-09-04T18:21:40.489Z,17.68
2022-09-04T18:24:43.779Z,17.42
2022-09-04T18:27:15.096Z,17.29
2022-09-04T18:33:55.634Z,17.16
2022-09-04T18:37:09.301Z,17.13
2022-09-04T18:37:16.432Z,17.00
2022-09-04T18:40:05.059Z,17.08
2022-09-04T18:49:40.395Z,17.07
2022-09-04T18:50:32.438Z,16.87
2022-09-04T18:50:50.871Z,16.65
2022-09-04T18:51:51.956Z,16.69
2022-09-04T18:54:41.628Z,16.36
2022-09-04T18:57:57.360Z,16.51
2022-09-04T19:00:52.295Z,16.86
2022-09-04T19:03:23.324Z,16.51
2022-09-04T19:05:54.813Z,16.64
2022-09-04T19:08:32.983Z,16.64
2022-09-04T19:11:20.627Z,16.66
2022-09-04T19:14:12.586Z,16.65
2022-09-04T19:16:53.226Z,16.43
2022-09-04T19:19:34.715Z,16.55
2022-09-04T19:22:13.675Z,16.56
2022-09-04T19:24:51.850Z,16.25
2022-09-04T19:27:20.610Z,16.29
2022-09-04T19:30:18.445Z,16.09
2022-09-04T19:33:02.869Z,16.02
2022-09-04T19:35:36.814Z,16.05
2022-09-04T19:43:38.511Z,15.91
2022-09-04T19:46:04.809Z,15.74
2022-09-04T19:46:14.570Z,15.71
2022-09-04T19:47:55.656Z,15.65
2022-09-04T19:53:20.264Z,15.38
2022-09-04T19:53:39.619Z,15.29
2022-09-04T19:56:24.238Z,15.45
2022-09-04T19:58:57.259Z,15.34
2022-09-04T20:01:30.103Z,15.31
2022-09-04T20:04:02.371Z,15.31
2022-09-04T20:06:45.119Z,15.12
2022-09-04T20:09:26.077Z,15.05
2022-09-04T20:12:01.830Z,14.85
2022-09-04T20:14:36.070Z,15.04
2022-09-04T20:17:34.842Z,15.29
2022-09-04T20:20:48.012Z,15.08
2022-09-04T20:23:35.133Z,14.97
2022-09-04T20:26:32.077Z,14.72
2022-09-04T20:29:15.236Z,14.97
2022-09-04T20:31:56.399Z,14.74
2022-09-04T20:35:13.565Z,14.85
2022-09-04T20:37:48.904Z,14.91
2022-09-04T20:40:42.178Z,14.73
2022-09-04T20:43:23.897Z,14.71
2022-09-04T20:51:55.241Z,14.71
2022-09-04T20:52:48.761Z,14.61
2022-09-04T20:52:52.038Z,14.57
2022-09-04T20:55:05.310Z,14.23
2022-09-04T21:02:50.654Z,14.51
2022-09-04T21:03:21.499Z,14.20
2022-09-04T21:04:08.959Z,14.14
2022-09-04T21:06:44.734Z,14.33
2022-09-04T21:09:23.430Z,14.41
2022-09-04T21:12:14.612Z,14.28
2022-09-04T21:14:47.885Z,14.17
2022-09-04T21:17:57.479Z,14.38
2022-09-04T21:20:59.284Z,14.14
2022-09-04T21:23:46.549Z,14.12
2022-09-04T21:27:08.520Z,14.04
2022-09-04T21:29:47.050Z,14.04
2022-09-04T21:32:16.457Z,14.02
2022-09-04T21:34:56.417Z,13.90
2022-09-04T21:38:06.714Z,13.87
2022-09-04T21:41:14.490Z,13.65
2022-09-04T21:43:43.887Z,13.64
2022-09-04T21:46:19.480Z,13.66
2022-09-04T21:49:12.907Z,13.43
2022-09-04T21:52:24.528Z,13.55
2022-09-04T22:00:28.967Z,13.47
2022-09-04T22:02:40.621Z,13.42
2022-09-04T22:02:43.088Z,13.24
2022-09-04T22:04:55.296Z,13.25
2022-09-04T22:11:06.643Z,13.38
2022-09-04T22:13:38.742Z,13.39
2022-09-04T22:13:49.439Z,13.53
2022-09-04T22:16:52.524Z,13.44
2022-09-04T22:19:41.101Z,13.16
2022-09-04T22:22:20.136Z,13.09
2022-09-04T22:25:12.110Z,13.09
2022-09-04T22:28:08.823Z,13.42
2022-09-04T22:31:09.187Z,13.52
2022-09-04T22:34:15.062Z,13.66
2022-09-04T22:37:08.672Z,13.64
2022-09-04T22:39:37.850Z,13.58
2022-09-04T22:42:32.082Z,13.37
2022-09-04T22:45:15.242Z,13.23
2022-09-04T22:47:41.738Z,13.11
2022-09-04T22:50:50.102Z,13.10
2022-09-04T22:53:50.696Z,13.34
2022-09-04T22:56:27.527Z,13.33
2022-09-04T22:59:27.837Z,13.24
2022-09-04T23:03:06.741Z,12.80
2022-09-04T23:05:43.291Z,12.98
2022-09-04T23:13:44.593Z,13.01
2022-09-04T23:13:58.886Z,12.85
2022-09-04T23:14:20.133Z,12.88
2022-09-04T23:17:10.139Z,12.88
2022-09-04T23:26:31.610Z,12.89
2022-09-04T23:26:44.300Z,12.87
2022-09-04T23:26:49.608Z,12.87
2022-09-04T23:29:22.099Z,12.92
2022-09-04T23:32:45.697Z,12.99
2022-09-04T23:35:24.222Z,13.05
2022-09-04T23:38:00.593Z,13.03
2022-09-04T23:40:31.819Z,13.07
2022-09-04T23:43:34.866Z,12.90
2022-09-04T23:46:17.941Z,12.60
2022-09-04T23:48:44.345Z,12.74
2022-09-04T23:51:32.684Z,12.74
2022-09-04T23:54:25.701Z,12.67
2022-09-04T23:57:26.715Z,12.79
